createdAt,value
2019-05-13T14:13:45.470Z,100756.25
2019-05-13T14:22:57.268Z,100769.81
2019-05-13T14:28:56.910Z,100775.50
2019-05-13T14:31:51.982Z,100770.71
2019-05-13T14:40:41.604Z,100776.26
2019-05-13T14:49:31.958Z,100765.94
2019-05-13T14:52:14.698Z,100767.97
2019-05-13T14:54:51.408Z,100772.28
2019-05-13T14:57:24.100Z,100770.73
2019-05-13T15:00:02.204Z,100773.31
2019-05-13T15:02:35.919Z,100771.20
2019-05-13T15:05:15.355Z,100772.44
2019-05-13T15:11:05.888Z,100766.90
2019-05-13T15:13:53.021Z,100775.91
2019-05-13T15:16:38.642Z,100773.30
2019-05-13T15:22:22.692Z,100783.33
2019-05-13T15:28:16.796Z,100787.40
2019-05-13T15:33:41.881Z,100776.03
2019-05-13T15:36:15.553Z,100767.91
2019-05-13T15:38:49.123Z,100769.31
2019-05-13T15:41:21.706Z,100769.02
2019-05-13T15:43:55.242Z,100772.94
2019-05-13T15:46:28.466Z,100775.06
2019-05-13T15:49:02.193Z,100773.69
2019-05-13T15:51:35.096Z,100769.30
2019-05-13T15:54:08.378Z,100761.43
2019-05-13T15:56:40.889Z,100766.92
2019-05-13T15:59:13.534Z,100763.83
2019-05-13T16:01:46.855Z,100762.49
2019-05-13T16:04:21.352Z,100758.48
2019-05-13T16:07:09.192Z,100759.45
2019-05-13T16:09:44.829Z,100751.88
2019-05-13T16:12:16.932Z,100753.27
2019-05-13T16:14:49.154Z,100748.80
2019-05-13T16:17:38.765Z,100741.34
2019-05-13T16:20:03.848Z,100730.31
2019-05-13T16:22:37.766Z,100717.93
2019-05-13T16:25:18.206Z,100720.72
2019-05-13T16:27:52.031Z,100723.62
2019-05-13T16:30:25.801Z,100727.84
2019-05-13T16:33:02.256Z,100718.64
2019-05-13T16:35:34.111Z,100727.03
2019-05-13T16:38:16.997Z,100723.03
2019-05-13T16:40:51.512Z,100722.06
2019-05-13T16:43:26.500Z,100716.00
2019-05-13T16:45:59.049Z,100716.36
2019-05-13T16:48:32.474Z,100716.36
2019-05-13T16:51:06.850Z,100715.34
2019-05-13T16:53:42.802Z,100711.59
2019-05-13T16:56:26.383Z,100711.09
2019-05-13T16:58:52.018Z,100712.59
2019-05-13T17:01:25.351Z,100709.23
2019-05-13T17:03:58.555Z,100711.93
2019-05-13T17:06:32.171Z,100711.09
2019-05-13T17:09:06.013Z,100706.75
2019-05-13T17:11:38.599Z,100707.98
2019-05-13T17:14:13.149Z,100705.00
2019-05-13T17:16:45.621Z,100700.44
2019-05-13T17:19:18.757Z,100696.34
2019-05-13T17:21:52.070Z,100688.83
2019-05-13T17:24:24.852Z,100684.09
2019-05-13T17:26:57.903Z,100685.09
2019-05-13T17:29:31.692Z,100687.70
2019-05-13T17:32:12.275Z,100682.49
2019-05-13T17:34:45.997Z,100683.09
2019-05-13T17:37:27.171Z,100682.20
2019-05-13T17:40:01.456Z,100681.05
2019-05-13T17:42:35.188Z,100674.00
2019-05-13T17:45:11.303Z,100663.44
2019-05-13T17:47:52.009Z,100659.95
2019-05-13T17:50:25.313Z,100652.41
2019-05-13T17:52:58.803Z,100650.70
2019-05-13T17:55:31.544Z,100644.34
2019-05-13T17:58:06.155Z,100636.05
2019-05-13T18:00:41.371Z,100636.05
2019-05-13T18:03:13.729Z,100628.73
2019-05-13T18:05:46.561Z,100619.81
2019-05-13T18:08:19.610Z,100612.16
2019-05-13T18:10:52.584Z,100616.75
2019-05-13T18:13:25.894Z,100617.25
2019-05-13T18:16:02.440Z,100627.30
2019-05-13T18:18:42.676Z,100624.75
2019-05-13T18:21:08.161Z,100629.61
2019-05-13T18:23:41.471Z,100631.27
2019-05-13T18:26:16.234Z,100640.27
2019-05-13T18:28:51.307Z,100632.59
2019-05-13T18:31:24.853Z,100630.13
2019-05-13T18:33:57.091Z,100628.89
2019-05-13T18:36:31.815Z,100626.42
2019-05-13T18:39:04.351Z,100635.94
2019-05-13T18:41:37.151Z,100631.58
2019-05-13T18:44:12.336Z,100626.95
2019-05-13T18:46:44.271Z,100622.25
2019-05-13T18:49:16.766Z,100626.13
2019-05-13T18:51:49.741Z,100625.41
2019-05-13T18:54:22.658Z,100625.64
2019-05-13T18:56:58.563Z,100618.81
2019-05-13T18:59:32.219Z,100615.16
2019-05-13T19:02:06.717Z,100618.03
2019-05-13T19:04:41.799Z,100617.86
2019-05-13T19:07:15.107Z,100612.97
2019-05-13T19:09:47.953Z,100609.57
2019-05-13T19:12:21.967Z,100613.37
2019-05-13T19:15:02.666Z,100598.44
2019-05-13T19:17:36.300Z,100599.58
2019-05-13T19:20:23.052Z,100598.58
2019-05-13T19:23:04.403Z,100594.64
2019-05-13T19:25:39.838Z,100596.89
2019-05-13T19:28:17.945Z,100588.47
2019-05-13T19:30:57.845Z,100583.89
2019-05-13T19:33:37.954Z,100582.02
2019-05-13T19:36:11.924Z,100576.89
2019-05-13T19:38:51.646Z,100575.47
2019-05-13T19:41:34.622Z,100569.97
2019-05-13T19:44:09.337Z,100568.86
2019-05-13T19:46:45.616Z,100568.35
2019-05-13T19:49:31.925Z,100564.24
2019-05-13T19:51:53.489Z,100568.35
2019-05-13T19:54:26.363Z,100567.17
2019-05-13T19:57:01.426Z,100566.91
2019-05-13T19:59:33.780Z,100575.29
2019-05-13T20:02:06.933Z,100565.17
2019-05-13T20:04:41.386Z,100565.48
2019-05-13T20:07:13.455Z,100564.43
2019-05-13T20:09:46.499Z,100565.34
2019-05-13T20:12:21.250Z,100565.67
2019-05-13T20:15:01.410Z,100576.09
2019-05-13T20:17:34.669Z,100563.17
2019-05-13T20:20:12.410Z,100568.78
2019-05-13T20:22:44.528Z,100567.37
2019-05-13T20:25:18.011Z,100574.73
2019-05-13T20:27:51.565Z,100587.64
2019-05-13T20:30:24.930Z,100583.20
2019-05-13T20:32:57.775Z,100582.66
2019-05-13T20:35:31.396Z,100583.34
2019-05-13T20:38:11.538Z,100580.77
2019-05-13T20:40:44.696Z,100579.26
2019-05-13T20:43:22.337Z,100583.20
2019-05-13T20:45:55.341Z,100588.51
2019-05-13T20:48:28.297Z,100587.38
2019-05-13T20:51:02.712Z,100580.63
2019-05-13T20:53:38.186Z,100590.63
2019-05-13T20:56:11.355Z,100587.40
2019-05-13T20:58:44.036Z,100584.08
2019-05-13T21:01:16.458Z,100582.13
2019-05-13T21:03:51.555Z,100594.24
2019-05-13T21:06:23.899Z,100596.28
2019-05-13T21:08:56.670Z,100597.06
2019-05-13T21:11:31.095Z,100589.37
2019-05-13T21:14:03.905Z,100599.77
2019-05-13T21:16:36.744Z,100596.16
2019-05-13T21:19:09.457Z,100592.59
2019-05-13T21:21:42.441Z,100597.38
2019-05-13T21:24:15.304Z,100594.73
2019-05-13T21:26:48.554Z,100589.77
2019-05-13T21:29:21.614Z,100586.91
2019-05-13T21:31:54.400Z,100585.37
2019-05-13T21:34:26.849Z,100579.61
2019-05-13T21:37:02.373Z,100588.38
2019-05-13T21:39:34.905Z,100584.92
2019-05-13T21:42:07.736Z,100588.77
2019-05-13T21:44:41.962Z,100590.75
2019-05-13T21:47:14.957Z,100591.81
2019-05-13T21:49:47.945Z,100581.40
2019-05-13T21:52:23.593Z,100580.44
2019-05-13T21:54:54.601Z,100575.72
2019-05-13T21:57:27.701Z,100579.55
2019-05-13T22:00:02.079Z,100583.19
2019-05-13T22:02:35.345Z,100576.61
2019-05-13T22:05:08.118Z,100586.20
2019-05-13T22:07:42.119Z,100591.09
2019-05-13T22:10:17.285Z,100587.26
2019-05-13T22:12:51.920Z,100597.36
2019-05-13T22:15:23.730Z,100611.81
2019-05-13T22:17:56.566Z,100612.67
2019-05-13T22:20:31.719Z,100607.74
2019-05-13T22:23:04.453Z,100607.36
2019-05-13T22:25:37.238Z,100616.89
2019-05-13T22:28:11.772Z,100609.94
2019-05-13T22:30:44.801Z,100610.83
